Time;durP1;ratioP1;P1;durP2;ratioP2;P2;SDS_P1;SDS_P2;PMS_P1;PMS_P2;Temp;Humidity;BMP_temperature;BMP_pressure;BME280_temperature;BME280_humidity;BME280_pressure;Samples;Min_cycle;Max_cycle;Signal;HPM_P1;HPM_P2
2022/11/22 00:00:27;;;;;;;28.73;16.42;;;3.60;99.90;;;;;;7388929;19;20498;-46
2022/11/22 00:02:54;;;;;;;28.45;17.05;;;3.60;99.90;;;;;;7388549;19;20470;-45
2022/11/22 00:05:21;;;;;;;27.33;17.52;;;3.70;99.90;;;;;;7389287;19;20034;-48
2022/11/22 00:07:47;;;;;;;23.50;14.52;;;3.70;99.90;;;;;;7389292;19;20558;-46
2022/11/22 00:10:14;;;;;;;25.73;16.23;;;3.70;99.90;;;;;;7389055;19;20045;-49
2022/11/22 00:12:41;;;;;;;22.90;14.68;;;3.70;99.90;;;;;;7392051;19;20491;-49
2022/11/22 00:15:09;;;;;;;24.30;15.38;;;3.70;99.90;;;;;;7386493;19;20536;-47
2022/11/22 00:17:35;;;;;;;24.15;15.48;;;3.70;99.90;;;;;;7390557;19;20474;-47
2022/11/22 00:20:06;;;;;;;23.92;14.85;;;3.70;99.90;;;;;;7391816;19;20010;-48
2022/11/22 00:22:33;;;;;;;21.92;14.30;;;3.80;99.90;;;;;;7391671;19;20011;-47
2022/11/22 00:24:59;;;;;;;15.07;9.95;;;3.80;99.90;;;;;;7389879;19;20030;-46
2022/11/22 00:27:26;;;;;;;21.80;14.55;;;3.90;99.90;;;;;;7390226;19;20025;-48
2022/11/22 00:29:53;;;;;;;23.42;12.52;;;3.80;99.90;;;;;;7390854;19;20023;-50
2022/11/22 00:32:19;;;;;;;19.48;13.32;;;3.90;99.90;;;;;;7391793;19;20019;-48
2022/11/22 00:34:45;;;;;;;21.90;15.35;;;3.90;99.90;;;;;;7392345;19;20022;-49
2022/11/22 00:37:11;;;;;;;21.83;14.65;;;3.90;99.90;;;;;;7389812;19;20018;-49
2022/11/22 00:39:38;;;;;;;23.52;14.07;;;3.90;99.90;;;;;;7391209;19;20035;-45
2022/11/22 00:42:04;;;;;;;23.55;15.60;;;3.90;99.90;;;;;;7389552;19;20354;-50
2022/11/22 00:44:31;;;;;;;24.08;14.90;;;3.90;99.90;;;;;;7382455;19;20028;-48
2022/11/22 00:46:57;;;;;;;27.42;16.77;;;3.90;99.90;;;;;;7374877;19;20031;-48
2022/11/22 00:49:23;;;;;;;26.20;15.95;;;3.90;99.90;;;;;;7378166;19;20462;-50
2022/11/22 00:51:49;;;;;;;25.13;15.88;;;3.90;99.90;;;;;;7382877;19;20100;-46
2022/11/22 00:54:16;;;;;;;23.23;15.90;;;3.90;99.90;;;;;;7379622;19;20011;-48
2022/11/22 00:56:42;;;;;;;26.80;16.38;;;3.90;99.90;;;;;;7377619;19;20014;-47
2022/11/22 00:59:09;;;;;;;26.92;16.40;;;3.90;99.90;;;;;;7373126;19;20359;-50
2022/11/22 01:01:35;;;;;;;26.50;16.08;;;3.80;99.90;;;;;;7390578;19;20490;-50
2022/11/22 01:04:01;;;;;;;24.00;15.80;;;3.80;99.90;;;;;;7386974;19;20086;-50
2022/11/22 01:06:28;;;;;;;30.08;17.77;;;3.80;99.90;;;;;;7388825;19;20014;-48
2022/11/22 01:08:55;;;;;;;23.65;15.00;;;3.70;99.90;;;;;;7380501;19;20491;-47
2022/11/22 01:11:21;;;;;;;24.38;16.65;;;3.70;99.90;;;;;;7370540;19;20038;-47
2022/11/22 01:13:47;;;;;;;23.52;14.80;;;3.70;99.90;;;;;;7383262;19;20027;-50
2022/11/22 01:16:14;;;;;;;28.55;17.05;;;3.70;99.90;;;;;;7390240;19;20363;-50
2022/11/22 01:18:41;;;;;;;23.85;14.95;;;3.70;99.90;;;;;;7389959;19;20046;-50
2022/11/22 01:21:08;;;;;;;31.63;18.55;;;3.70;99.90;;;;;;7387618;19;20454;-48
2022/11/22 01:23:35;;;;;;;30.98;18.70;;;3.70;99.90;;;;;;7378377;19;20395;-47
2022/11/22 01:26:02;;;;;;;27.85;17.02;;;3.70;99.90;;;;;;7368860;19;20464;-46
2022/11/22 01:28:31;;;;;;;28.63;17.45;;;3.70;99.90;;;;;;7395438;19;20038;-50
2022/11/22 01:30:57;;;;;;;24.88;13.85;;;3.70;99.90;;;;;;7394665;19;20479;-50
2022/11/22 01:33:24;;;;;;;28.52;16.77;;;3.70;99.90;;;;;;7396115;19;20015;-49
2022/11/22 01:35:51;;;;;;;29.13;17.10;;;3.70;99.90;;;;;;7394886;19;20091;-50
2022/11/22 01:38:17;;;;;;;27.77;16.85;;;3.80;99.90;;;;;;7384018;19;20022;-47
2022/11/22 01:40:43;;;;;;;27.85;16.90;;;3.80;99.90;;;;;;7377436;19;20582;-46
2022/11/22 01:43:21;;;;;;;26.20;16.58;;;3.80;99.90;;;;;;7375067;19;20015;-48
2022/11/22 01:45:53;;;;;;;27.48;17.70;;;3.80;99.90;;;;;;7377487;19;20035;-48
2022/11/22 01:48:26;;;;;;;35.05;19.13;;;3.80;99.90;;;;;;7377189;19;20025;-44
2022/11/22 01:50:54;;;;;;;;;;;3.80;99.90;;;;;;7377844;19;20018;-44
2022/11/22 01:53:24;;;;;;;25.88;14.85;;;3.80;99.90;;;;;;7376652;19;20350;-48
2022/11/22 01:55:52;;;;;;;31.52;18.73;;;3.80;99.90;;;;;;7373413;19;20013;-48
2022/11/22 01:58:20;;;;;;;32.03;18.05;;;3.80;99.90;;;;;;7377874;19;20015;-49
2022/11/22 02:00:48;;;;;;;29.40;17.27;;;3.80;99.90;;;;;;7378568;19;20022;-44
2022/11/22 02:03:17;;;;;;;30.13;18.50;;;3.80;99.90;;;;;;7375767;19;20019;-48
2022/11/22 02:05:45;;;;;;;27.27;18.42;;;3.80;99.90;;;;;;7372787;19;20028;-46
2022/11/22 02:08:19;;;;;;;29.42;17.85;;;3.80;99.90;;;;;;7372182;19;20050;-45
2022/11/22 02:10:49;;;;;;;27.63;16.08;;;3.80;99.90;;;;;;7382223;19;20074;-46
2022/11/22 02:13:20;;;;;;;24.23;15.48;;;3.80;99.90;;;;;;7393289;19;20014;-50
2022/11/22 02:15:47;;;;;;;25.67;16.25;;;3.80;99.90;;;;;;7393512;19;20015;-50
2022/11/22 02:18:15;;;;;;;31.30;17.95;;;3.80;99.90;;;;;;7390766;19;20082;-49
2022/11/22 02:20:41;;;;;;;30.27;18.33;;;3.80;99.90;;;;;;7391301;19;20081;-48
2022/11/22 02:23:36;;;;;;;35.55;18.05;;;3.80;99.90;;;;;;7373918;19;20046;-45
2022/11/22 02:26:04;;;;;;;32.17;18.25;;;3.80;99.90;;;;;;7374270;19;20570;-49
2022/11/22 02:28:36;;;;;;;34.25;18.17;;;3.90;99.90;;;;;;7373185;19;20466;-45
2022/11/22 02:31:02;;;;;;;33.03;18.02;;;3.90;99.90;;;;;;7370468;19;20018;-47
2022/11/22 02:33:33;;;;;;;32.90;19.00;;;3.90;99.90;;;;;;7375054;19;20026;-48
2022/11/22 02:35:59;;;;;;;30.45;17.52;;;3.90;99.90;;;;;;7374551;19;20018;-45
2022/11/22 02:38:32;;;;;;;31.52;17.38;;;3.90;99.90;;;;;;7375189;19;20039;-48
2022/11/22 02:41:10;;;;;;;34.10;18.45;;;3.90;99.90;;;;;;7371873;19;20051;-48
2022/11/22 02:43:40;;;;;;;38.45;19.48;;;4.00;99.90;;;;;;7379607;19;20015;-50
2022/11/22 02:46:09;;;;;;;31.23;15.85;;;4.00;99.90;;;;;;7390193;19;20504;-47
2022/11/22 02:48:43;;;;;;;29.58;17.67;;;4.00;99.90;;;;;;7391125;19;20027;-49
2022/11/22 02:51:10;;;;;;;30.80;18.08;;;4.00;99.90;;;;;;7390954;19;20025;-46
2022/11/22 02:53:36;;;;;;;31.40;17.00;;;4.00;99.90;;;;;;7389264;19;20019;-49
2022/11/22 02:56:04;;;;;;;29.48;17.42;;;4.00;99.90;;;;;;7389566;19;20098;-48
2022/11/22 02:58:32;;;;;;;30.55;18.55;;;4.00;99.90;;;;;;7390754;19;20477;-48
2022/11/22 03:00:58;;;;;;;29.15;18.00;;;4.10;99.90;;;;;;7388989;19;20162;-49
2022/11/22 03:03:25;;;;;;;32.53;17.95;;;4.10;99.90;;;;;;7386932;19;20018;-49
2022/11/22 03:05:51;;;;;;;32.38;19.17;;;4.10;99.90;;;;;;7384550;19;20030;-45
2022/11/22 03:08:17;;;;;;;32.83;17.10;;;4.10;99.90;;;;;;7372391;19;20031;-45
2022/11/22 03:10:43;;;;;;;34.75;17.80;;;4.10;99.90;;;;;;7378199;19;20050;-48
2022/11/22 03:13:10;;;;;;;30.33;16.67;;;4.10;99.90;;;;;;7371200;19;20426;-47
2022/11/22 03:15:36;;;;;;;32.60;17.65;;;4.20;99.90;;;;;;7381763;19;20019;-48
2022/11/22 03:18:03;;;;;;;27.00;17.23;;;4.20;99.90;;;;;;7374259;19;20020;-47
2022/11/22 03:20:32;;;;;;;33.55;19.63;;;4.20;99.90;;;;;;7375195;19;20022;-45
2022/11/22 03:23:01;;;;;;;28.48;18.13;;;4.20;99.90;;;;;;7372104;19;20015;-45
2022/11/22 03:25:28;;;;;;;29.83;17.70;;;4.20;99.90;;;;;;7371951;19;20023;-45
2022/11/22 03:27:54;;;;;;;32.80;18.48;;;4.20;99.90;;;;;;7372833;19;20018;-45
2022/11/22 03:30:21;;;;;;;28.15;17.48;;;4.20;99.90;;;;;;7386187;19;20429;-46
2022/11/22 03:32:47;;;;;;;27.05;17.30;;;4.20;99.90;;;;;;7374545;19;20509;-46
2022/11/22 03:35:13;;;;;;;29.58;16.95;;;4.30;99.90;;;;;;7374956;19;20526;-50
2022/11/22 03:37:40;;;;;;;29.55;17.33;;;4.30;99.90;;;;;;7384353;19;20025;-45
2022/11/22 03:40:07;;;;;;;31.63;18.20;;;4.30;99.90;;;;;;7378802;19;20838;-46
2022/11/22 03:42:33;;;;;;;25.25;13.95;;;4.30;99.90;;;;;;7372084;19;20102;-45
2022/11/22 03:44:59;;;;;;;32.22;18.02;;;4.30;99.90;;;;;;7375892;19;20089;-47
2022/11/22 03:47:25;;;;;;;33.45;19.08;;;4.30;99.90;;;;;;7371651;19;20021;-45
2022/11/22 03:49:52;;;;;;;30.67;18.42;;;4.30;99.90;;;;;;7371850;19;20061;-44
2022/11/22 03:52:18;;;;;;;30.00;17.27;;;4.40;99.90;;;;;;7386477;19;20018;-49
2022/11/22 03:54:44;;;;;;;26.02;17.17;;;4.40;99.90;;;;;;7381866;19;20018;-46
2022/11/22 03:57:11;;;;;;;29.60;17.00;;;4.40;99.90;;;;;;7371898;19;20018;-44
2022/11/22 03:59:38;;;;;;;27.25;15.60;;;4.40;99.90;;;;;;7373867;19;20022;-47
2022/11/22 04:02:04;;;;;;;29.88;17.65;;;4.40;99.90;;;;;;7383162;19;20506;-45
2022/11/22 04:04:31;;;;;;;28.17;17.33;;;4.40;99.90;;;;;;7385474;19;20014;-46
2022/11/22 04:06:57;;;;;;;28.23;16.75;;;4.40;99.90;;;;;;7387043;19;20019;-48
2022/11/22 04:09:23;;;;;;;31.35;18.83;;;4.50;99.90;;;;;;7386333;19;20018;-49
2022/11/22 04:11:50;;;;;;;28.13;17.20;;;4.50;99.90;;;;;;7386859;19;20560;-48
2022/11/22 04:17:00;;;;;;;30.25;18.55;;;4.50;99.90;;;;;;7382920;19;20018;-45
2022/11/22 04:19:27;;;;;;;33.80;19.02;;;4.50;99.90;;;;;;7375453;19;20019;-44
2022/11/22 04:21:53;;;;;;;32.15;16.85;;;4.50;99.90;;;;;;7374287;19;20022;-47
2022/11/22 04:27:04;;;;;;;25.25;17.30;;;4.50;99.90;;;;;;7371963;19;20022;-46
2022/11/22 04:29:30;;;;;;;31.27;16.55;;;4.50;99.90;;;;;;7372333;19;20506;-45
2022/11/22 04:34:41;;;;;;;27.95;15.80;;;4.60;99.90;;;;;;7386184;19;20407;-50
2022/11/22 04:37:08;;;;;;;27.67;17.50;;;4.60;99.90;;;;;;7384999;19;20409;-47
2022/11/22 04:39:34;;;;;;;31.00;18.20;;;4.60;99.90;;;;;;7385334;19;20019;-48
2022/11/22 04:44:45;;;;;;;28.13;16.52;;;4.60;99.90;;;;;;7372753;19;20711;-44
2022/11/22 04:50:00;;;;;;;26.08;17.25;;;4.70;99.90;;;;;;7368934;19;20097;-44
2022/11/22 04:55:11;;;;;;;26.95;15.98;;;4.70;99.90;;;;;;7372316;19;20489;-49
2022/11/22 04:57:38;;;;;;;26.98;16.63;;;4.70;99.90;;;;;;7367755;19;20097;-46
2022/11/22 05:00:05;;;;;;;26.85;16.40;;;4.70;99.90;;;;;;7366026;19;20042;-46
2022/11/22 05:02:32;;;;;;;30.27;17.52;;;4.80;99.90;;;;;;7373416;19;20030;-47
2022/11/22 05:04:59;;;;;;;31.85;18.50;;;4.80;99.90;;;;;;7374342;19;20018;-46
2022/11/22 05:07:25;;;;;;;29.08;17.10;;;4.80;99.90;;;;;;7380608;19;20505;-46
2022/11/22 05:09:52;;;;;;;28.98;18.73;;;4.80;99.90;;;;;;7390492;19;20477;-49
2022/11/22 05:12:18;;;;;;;24.88;18.13;;;4.90;99.90;;;;;;7383703;19;20356;-46
2022/11/22 05:14:44;;;;;;;30.55;18.73;;;4.90;99.90;;;;;;7374312;19;20019;-45
2022/11/22 05:17:11;;;;;;;28.77;18.00;;;4.90;99.90;;;;;;7377570;19;20015;-48
2022/11/22 05:19:37;;;;;;;27.80;17.77;;;4.90;99.90;;;;;;7376724;19;20459;-45
2022/11/22 05:22:03;;;;;;;28.17;17.75;;;4.90;99.90;;;;;;7373735;19;20024;-44
2022/11/22 05:24:29;;;;;;;31.83;19.45;;;4.90;99.90;;;;;;7379354;19;20461;-47
2022/11/22 05:26:56;;;;;;;26.90;16.95;;;4.90;99.90;;;;;;7376902;19;20025;-46
2022/11/22 05:29:23;;;;;;;34.10;18.63;;;4.90;99.90;;;;;;7375017;19;20806;-48
2022/11/22 05:31:49;;;;;;;33.95;17.20;;;4.90;99.90;;;;;;7375819;19;20129;-48
2022/11/22 05:34:15;;;;;;;27.23;16.98;;;4.90;99.90;;;;;;7375080;19;20035;-46
2022/11/22 05:36:41;;;;;;;29.73;17.23;;;5.00;99.90;;;;;;7376596;19;20435;-48
2022/11/22 05:39:08;;;;;;;28.98;16.95;;;5.00;99.90;;;;;;7371887;19;20019;-47
2022/11/22 05:41:34;;;;;;;31.98;17.90;;;5.00;99.90;;;;;;7379559;19;20082;-44
2022/11/22 05:44:00;;;;;;;27.77;17.83;;;5.00;99.90;;;;;;7375649;19;20589;-49
2022/11/22 05:46:28;;;;;;;29.13;16.83;;;5.00;99.90;;;;;;7374180;19;20423;-45
2022/11/22 05:48:56;;;;;;;31.17;17.55;;;5.00;99.90;;;;;;7374614;19;20023;-45
2022/11/22 05:51:26;;;;;;;28.23;18.75;;;5.10;99.90;;;;;;7370732;19;20480;-45
2022/11/22 05:53:52;;;;;;;33.92;17.30;;;5.00;99.90;;;;;;7375710;19;20029;-46
2022/11/22 05:56:23;;;;;;;26.95;17.30;;;5.10;99.90;;;;;;7377518;19;20022;-46
2022/11/22 05:58:50;;;;;;;32.45;18.10;;;5.10;99.90;;;;;;7372685;19;20525;-46
2022/11/22 06:01:21;;;;;;;28.60;16.85;;;5.10;99.90;;;;;;7377133;19;20022;-48
2022/11/22 06:03:48;;;;;;;28.10;16.08;;;5.10;99.90;;;;;;7375940;19;20428;-47
2022/11/22 06:06:15;;;;;;;25.10;16.17;;;5.20;99.90;;;;;;7374346;19;20474;-47
2022/11/22 06:08:45;;;;;;;29.02;17.35;;;5.20;99.90;;;;;;7376028;19;20022;-46
2022/11/22 06:11:17;;;;;;;28.77;15.57;;;5.30;99.90;;;;;;7370643;19;20018;-45
2022/11/22 06:13:44;;;;;;;;;;;5.30;99.90;;;;;;7384083;19;20082;-49
2022/11/22 06:16:11;;;;;;;23.13;15.38;;;5.30;99.90;;;;;;7386796;19;19967;-46
2022/11/22 06:18:38;;;;;;;28.20;15.95;;;5.20;99.90;;;;;;7389538;19;20038;-47
2022/11/22 06:21:07;;;;;;;28.40;17.60;;;5.20;99.90;;;;;;7388396;19;20096;-46
2022/11/22 06:23:33;;;;;;;22.73;15.00;;;5.20;99.90;;;;;;7382168;19;20017;-49
2022/11/22 06:26:02;;;;;;;26.65;16.00;;;5.20;99.90;;;;;;7385320;19;20018;-47
2022/11/22 06:28:29;;;;;;;24.48;15.98;;;5.10;99.90;;;;;;7386733;19;20028;-46
2022/11/22 06:31:25;;;;;;;24.10;15.43;;;5.10;99.90;;;;;;7389257;19;20026;-45
2022/11/22 06:33:58;;;;;;;24.20;16.30;;;5.10;99.90;;;;;;7388308;19;20030;-48
2022/11/22 06:36:28;;;;;;;27.58;14.85;;;5.10;99.90;;;;;;7389835;19;20022;-45
2022/11/22 06:38:54;;;;;;;29.17;15.07;;;5.10;99.90;;;;;;7390745;19;20088;-47
2022/11/22 06:41:23;;;;;;;24.42;14.32;;;5.10;99.90;;;;;;7391438;19;20017;-46
2022/11/22 06:43:51;;;;;;;22.67;14.25;;;5.00;99.90;;;;;;7390195;19;20027;-46
2022/11/22 06:46:20;;;;;;;25.55;14.63;;;5.00;99.90;;;;;;7388912;19;20482;-45
2022/11/22 06:48:47;;;;;;;22.40;13.32;;;5.00;99.90;;;;;;7389766;19;20036;-48
2022/11/22 06:51:20;;;;;;;28.95;15.43;;;4.90;99.90;;;;;;7386310;19;20608;-46
2022/11/22 06:53:47;;;;;;;30.35;14.55;;;4.90;99.90;;;;;;7387970;19;20010;-50
2022/11/22 06:56:19;;;;;;;22.50;11.68;;;4.80;99.90;;;;;;7387211;19;20078;-46
2022/11/22 06:58:46;;;;;;;25.08;13.07;;;4.80;99.90;;;;;;7388451;19;20029;-48
2022/11/22 07:01:23;;;;;;;22.92;12.68;;;4.80;99.90;;;;;;7388715;19;20097;-50
2022/11/22 07:03:54;;;;;;;27.38;12.65;;;4.80;99.90;;;;;;7386748;19;20019;-50
2022/11/22 07:06:21;;;;;;;23.92;13.05;;;4.70;99.90;;;;;;7387114;19;20019;-49
2022/11/22 07:08:47;;;;;;;19.38;12.48;;;4.70;99.90;;;;;;7387468;19;20021;-46
2022/11/22 07:11:17;;;;;;;24.27;12.02;;;4.70;99.90;;;;;;7388590;19;21309;-46
2022/11/22 07:13:44;;;;;;;26.10;12.75;;;4.60;99.90;;;;;;7387871;19;20085;-45
2022/11/22 07:16:14;;;;;;;26.88;12.88;;;4.70;99.90;;;;;;7385607;19;20022;-45
2022/11/22 07:18:42;;;;;;;22.05;12.18;;;4.60;99.90;;;;;;7388269;19;20518;-46
2022/11/22 07:21:14;;;;;;;22.65;11.90;;;4.70;99.90;;;;;;7384149;19;20014;-50
2022/11/22 07:23:43;;;;;;;22.30;12.60;;;4.60;99.90;;;;;;7383587;19;20014;-51
2022/11/22 07:26:10;;;;;;;20.45;12.25;;;4.60;99.90;;;;;;7386527;19;20050;-46
2022/11/22 07:28:37;;;;;;;28.75;11.85;;;4.70;99.90;;;;;;7387372;19;20015;-47
2022/11/22 07:31:06;;;;;;;27.77;12.68;;;4.70;99.90;;;;;;7385417;19;20040;-48
2022/11/22 07:33:33;;;;;;;18.65;10.25;;;4.70;99.90;;;;;;7386688;19;20050;-48
2022/11/22 07:36:04;;;;;;;25.15;11.48;;;4.80;99.90;;;;;;7387188;19;20027;-48
2022/11/22 07:38:31;;;;;;;26.10;10.60;;;4.80;99.90;;;;;;7389493;19;20018;-48
2022/11/22 07:40:58;;;;;;;24.75;10.85;;;4.80;99.90;;;;;;7387564;19;20564;-45
2022/11/22 07:43:24;;;;;;;22.40;9.25;;;4.80;99.90;;;;;;7386219;19;20010;-47
2022/11/22 07:45:51;;;;;;;22.75;10.00;;;4.80;99.90;;;;;;7385188;19;20006;-46
2022/11/22 07:48:18;;;;;;;25.88;9.32;;;4.80;99.90;;;;;;7386118;19;20011;-48
2022/11/22 07:50:45;;;;;;;20.83;8.00;;;4.70;99.90;;;;;;7386030;19;20019;-50
2022/11/22 07:53:11;;;;;;;19.92;9.93;;;4.70;99.90;;;;;;7387051;19;20014;-50
2022/11/22 07:55:38;;;;;;;25.38;8.70;;;4.80;99.90;;;;;;7388791;19;20052;-47
2022/11/22 07:58:04;;;;;;;24.05;8.43;;;4.80;99.90;;;;;;7388573;19;20023;-49
2022/11/22 08:00:32;;;;;;;19.60;8.25;;;4.80;99.90;;;;;;7385517;19;20529;-44
2022/11/22 08:03:02;;;;;;;17.63;6.65;;;4.70;99.90;;;;;;7372227;19;20014;-49
2022/11/22 08:05:28;;;;;;;14.73;7.40;;;4.70;99.90;;;;;;7387401;19;20029;-47
2022/11/22 08:07:55;;;;;;;19.02;6.10;;;4.80;99.90;;;;;;7384205;19;20474;-47
2022/11/22 08:10:22;;;;;;;18.88;7.78;;;4.80;99.90;;;;;;7386781;19;20018;-46
2022/11/22 08:12:48;;;;;;;15.05;6.55;;;4.80;99.90;;;;;;7386013;19;20483;-50
2022/11/22 08:15:16;;;;;;;20.42;6.75;;;4.80;99.90;;;;;;7383368;19;20042;-49
2022/11/22 08:17:43;;;;;;;24.70;7.40;;;4.80;99.90;;;;;;7384774;19;20383;-46
2022/11/22 08:20:09;;;;;;;12.57;5.78;;;4.80;99.90;;;;;;7379359;19;20090;-45
2022/11/22 08:22:37;;;;;;;13.25;6.35;;;4.90;99.90;;;;;;7374152;19;20042;-45
2022/11/22 08:25:11;;;;;;;16.70;5.55;;;5.00;99.90;;;;;;7373159;19;20025;-46
2022/11/22 08:27:40;;;;;;;15.00;5.60;;;5.20;99.90;;;;;;7376975;19;20407;-45
2022/11/22 08:30:08;;;;;;;13.57;5.60;;;5.40;99.90;;;;;;7374682;19;21101;-45
2022/11/22 08:32:35;;;;;;;13.77;4.65;;;5.60;99.90;;;;;;7375927;19;20627;-44
2022/11/22 08:35:02;;;;;;;12.20;4.00;;;5.70;99.90;;;;;;7371551;19;20426;-46
2022/11/22 08:37:29;;;;;;;10.30;3.90;;;5.90;99.90;;;;;;7370232;19;20052;-46
2022/11/22 08:39:56;;;;;;;14.77;4.75;;;5.90;99.90;;;;;;7372484;19;20015;-45
2022/11/22 08:42:22;;;;;;;10.82;3.95;;;5.90;99.90;;;;;;7367821;19;20485;-46
2022/11/22 08:44:49;;;;;;;13.98;4.50;;;6.00;99.90;;;;;;7379426;19;20074;-47
2022/11/22 08:47:16;;;;;;;15.30;3.65;;;6.00;99.90;;;;;;7375910;19;20097;-46
2022/11/22 08:49:42;;;;;;;13.60;4.28;;;6.00;99.90;;;;;;7381374;19;20011;-48
2022/11/22 08:52:09;;;;;;;10.63;3.25;;;6.00;99.90;;;;;;7378821;19;20028;-48
2022/11/22 08:54:35;;;;;;;11.20;3.20;;;6.00;99.90;;;;;;7375009;19;20419;-43
2022/11/22 08:57:02;;;;;;;9.32;3.85;;;6.00;99.90;;;;;;7370805;19;20018;-47
2022/11/22 08:59:28;;;;;;;11.48;3.03;;;5.90;99.90;;;;;;7369964;19;20027;-46
2022/11/22 09:01:55;;;;;;;11.35;3.15;;;6.00;99.90;;;;;;7377732;19;20014;-48
2022/11/22 09:04:23;;;;;;;12.27;3.63;;;6.00;99.90;;;;;;7381999;19;20044;-46
2022/11/22 09:06:50;;;;;;;10.38;3.65;;;6.00;99.90;;;;;;7383845;19;20377;-47
2022/11/22 09:09:16;;;;;;;10.75;3.17;;;6.00;99.90;;;;;;7381838;19;20029;-47
2022/11/22 09:11:43;;;;;;;13.00;3.78;;;6.20;99.90;;;;;;7382010;19;20024;-45
2022/11/22 09:14:10;;;;;;;10.55;3.03;;;6.30;99.90;;;;;;7381023;19;20391;-47
2022/11/22 09:16:36;;;;;;;10.68;3.03;;;6.40;99.90;;;;;;7380749;19;20022;-46
2022/11/22 09:19:02;;;;;;;11.45;4.32;;;6.40;99.90;;;;;;7382932;19;20018;-47
2022/11/22 09:21:29;;;;;;;14.07;3.38;;;6.50;99.90;;;;;;7384400;19;20018;-48
2022/11/22 09:23:56;;;;;;;13.60;3.10;;;6.60;99.90;;;;;;7383345;19;20444;-45
2022/11/22 09:26:24;;;;;;;9.40;3.25;;;6.70;99.90;;;;;;7382452;19;20022;-45
2022/11/22 09:28:52;;;;;;;13.10;3.88;;;6.70;99.90;;;;;;7382594;19;20038;-46
2022/11/22 09:31:20;;;;;;;12.80;3.40;;;6.70;99.90;;;;;;7383194;19;20038;-46
2022/11/22 09:33:48;;;;;;;6.30;2.83;;;6.70;99.90;;;;;;7386374;19;20084;-49
2022/11/22 09:36:16;;;;;;;17.80;3.72;;;6.70;99.90;;;;;;7384475;19;20511;-47
2022/11/22 09:38:43;;;;;;;11.13;3.45;;;6.70;99.90;;;;;;7382352;19;20018;-45
2022/11/22 09:41:34;;;;;;;11.50;3.05;;;6.90;99.90;;;;;;7381403;19;20387;-45
2022/11/22 09:44:10;;;;;;;12.10;2.97;;;7.20;99.90;;;;;;7381468;19;20040;-46
2022/11/22 09:46:48;;;;;;;8.65;2.97;;;7.20;99.90;;;;;;7384752;19;20086;-47
2022/11/22 09:49:27;;;;;;;13.93;3.13;;;7.20;99.90;;;;;;7388517;19;20454;-49
2022/11/22 09:51:56;;;;;;;11.60;3.35;;;7.10;99.90;;;;;;7388836;19;20603;-52
2022/11/22 09:54:54;;;;;;;10.43;3.47;;;7.00;99.90;;;;;;7389929;19;20026;-48
2022/11/22 09:57:32;;;;;;;14.40;3.92;;;7.00;99.90;;;;;;7386603;19;20473;-51
2022/11/22 10:00:19;;;;;;;12.57;2.65;;;6.90;99.90;;;;;;7387746;19;20011;-51
2022/11/22 10:03:03;;;;;;;10.95;3.00;;;6.90;99.90;;;;;;7388864;19;20015;-50
2022/11/22 10:06:03;;;;;;;10.93;2.80;;;7.00;99.90;;;;;;7387261;19;20031;-52
2022/11/22 10:08:43;;;;;;;12.80;2.53;;;7.00;99.90;;;;;;7381066;19;20102;-52
2022/11/22 10:11:23;;;;;;;8.05;2.33;;;7.00;99.90;;;;;;7385244;19;20357;-51
2022/11/22 10:13:55;;;;;;;9.73;2.92;;;7.00;99.90;;;;;;7387028;19;20022;-51
2022/11/22 10:16:43;;;;;;;12.80;3.22;;;7.00;99.90;;;;;;7386612;19;20750;-52
2022/11/22 10:19:22;;;;;;;11.13;3.05;;;7.10;99.90;;;;;;7383168;19;20038;-52
2022/11/22 10:21:49;;;;;;;8.13;2.38;;;7.10;99.90;;;;;;7389271;19;20062;-49
2022/11/22 10:24:18;;;;;;;9.15;2.30;;;7.20;99.90;;;;;;7384007;19;20688;-51
2022/11/22 10:26:46;;;;;;;11.52;2.42;;;7.20;99.90;;;;;;7388545;19;20010;-49
2022/11/22 10:29:27;;;;;;;11.77;2.88;;;7.20;99.90;;;;;;7385089;19;20014;-52
2022/11/22 10:32:02;;;;;;;7.70;2.75;;;7.40;99.90;;;;;;7387529;19;20018;-52
2022/11/22 10:34:39;;;;;;;12.38;2.58;;;7.60;99.90;;;;;;7388123;19;20395;-52
2022/11/22 10:37:38;;;;;;;14.70;3.10;;;7.80;99.90;;;;;;7386295;19;20022;-51
2022/11/22 10:40:23;;;;;;;18.23;3.13;;;8.20;99.90;;;;;;7379561;19;20014;-49
2022/11/22 10:43:19;;;;;;;9.05;3.35;;;8.80;99.90;;;;;;7372248;19;20015;-48
2022/11/22 10:46:00;;;;;;;9.45;2.42;;;9.70;99.90;;;;;;7372762;19;20499;-47
2022/11/22 10:48:39;;;;;;;9.65;2.33;;;10.80;99.90;;;;;;7374056;19;20054;-48
2022/11/22 10:51:32;;;;;;;7.22;2.28;;;11.40;99.90;;;;;;7374548;19;20049;-44
2022/11/22 10:54:18;;;;;;;6.90;2.13;;;11.60;99.90;;;;;;7375057;19;20025;-46
2022/11/22 10:57:10;;;;;;;5.10;2.35;;;11.70;99.90;;;;;;7381226;19;20018;-49
2022/11/22 10:59:42;;;;;;;;;;;11.70;99.90;;;;;;7371544;19;20018;-47
2022/11/22 11:02:30;;;;;;;9.70;2.58;;;11.40;99.90;;;;;;7373911;19;20009;-46
2022/11/22 11:04:59;;;;;;;6.43;1.80;;;10.60;99.90;;;;;;7374742;19;20110;-46
2022/11/22 11:07:27;;;;;;;7.05;2.38;;;10.10;99.90;;;;;;7371580;19;20094;-45
2022/11/22 11:10:00;;;;;;;7.05;1.80;;;9.50;99.90;;;;;;7365164;19;21625;-45
2022/11/22 11:12:34;;;;;;;10.95;2.50;;;9.00;99.90;;;;;;7371790;19;20015;-49
2022/11/22 11:15:13;;;;;;;8.32;2.08;;;8.80;99.90;;;;;;7375729;19;20478;-47
2022/11/22 11:17:44;;;;;;;6.55;1.58;;;8.50;99.90;;;;;;7374423;19;20700;-46
2022/11/22 11:20:25;;;;;;;9.68;2.63;;;8.30;99.90;;;;;;7372540;19;20015;-49
2022/11/22 11:22:51;;;;;;;10.02;2.30;;;8.10;99.90;;;;;;7374345;19;20375;-48
2022/11/22 11:25:39;;;;;;;8.43;1.88;;;8.00;99.90;;;;;;7373101;19;20086;-48
2022/11/22 11:28:17;;;;;;;6.55;1.92;;;8.00;99.90;;;;;;7370248;19;20592;-45
2022/11/22 11:30:49;;;;;;;7.95;2.35;;;8.10;99.90;;;;;;7372364;19;20498;-47
2022/11/22 11:33:25;;;;;;;11.45;2.47;;;8.20;99.90;;;;;;7375975;19;20022;-49
2022/11/22 11:35:55;;;;;;;6.05;2.67;;;8.20;99.90;;;;;;7373456;19;20015;-46
2022/11/22 11:38:27;;;;;;;7.20;1.92;;;8.20;99.90;;;;;;7375648;19;20017;-51
2022/11/22 11:40:53;;;;;;;5.47;1.98;;;8.20;99.90;;;;;;7376368;19;20022;-54
2022/11/22 11:43:22;;;;;;;12.23;3.55;;;8.10;99.90;;;;;;7371844;19;20684;-49
2022/11/22 11:45:49;;;;;;;9.95;2.25;;;8.00;99.90;;;;;;7376570;19;20048;-51
2022/11/22 11:48:33;;;;;;;10.35;2.35;;;8.00;99.90;;;;;;7374969;19;20021;-53
2022/11/22 11:51:15;;;;;;;8.38;2.33;;;8.10;99.90;;;;;;7371748;19;20062;-46
2022/11/22 11:53:56;;;;;;;4.55;1.90;;;8.00;99.90;;;;;;7376072;19;20018;-49
2022/11/22 11:56:33;;;;;;;11.33;2.20;;;8.10;99.90;;;;;;7374870;19;20017;-47
2022/11/22 11:59:07;;;;;;;7.55;2.05;;;8.00;99.90;;;;;;7376450;19;20338;-50
2022/11/22 12:01:38;;;;;;;8.23;1.73;;;8.00;99.90;;;;;;7378827;19;20014;-51
2022/11/22 12:04:28;;;;;;;8.90;2.10;;;8.10;99.90;;;;;;7378523;19;20390;-51
2022/11/22 12:06:58;;;;;;;9.77;1.88;;;8.10;99.90;;;;;;7376885;19;20529;-51
2022/11/22 12:09:31;;;;;;;9.32;2.28;;;8.10;99.90;;;;;;7374456;19;20018;-51
2022/11/22 12:12:33;;;;;;;;;;;8.10;99.90;;;;;;7373360;19;20044;-48
2022/11/22 12:15:34;;;;;;;7.43;3.20;;;8.20;99.90;;;;;;7371500;19;19919;-46
2022/11/22 12:18:39;;;;;;;8.07;1.93;;;8.10;99.90;;;;;;7368970;19;20493;-44
2022/11/22 12:21:18;;;;;;;8.73;3.17;;;8.20;99.90;;;;;;7369349;19;20030;-47
2022/11/22 12:23:51;;;;;;;7.07;2.35;;;8.30;99.90;;;;;;7369669;19;20088;-47
2022/11/22 12:26:19;;;;;;;5.82;2.17;;;8.30;99.90;;;;;;7372553;19;20463;-47
2022/11/22 12:28:46;;;;;;;7.60;1.95;;;8.30;99.90;;;;;;7371132;19;20530;-47
2022/11/22 12:31:20;;;;;;;10.10;3.15;;;8.30;99.90;;;;;;7373190;19;20034;-44
2022/11/22 12:34:14;;;;;;;6.88;2.00;;;8.20;99.90;;;;;;7372991;19;20037;-47
2022/11/22 12:36:55;;;;;;;4.45;1.73;;;8.20;99.90;;;;;;7371174;19;20090;-46
2022/11/22 12:39:27;;;;;;;7.90;1.90;;;8.10;99.90;;;;;;7369823;19;20399;-45
2022/11/22 12:41:58;;;;;;;;;;;8.10;99.90;;;;;;7371016;19;20126;-44
2022/11/22 12:44:26;;;;;;;6.85;1.40;;;8.10;99.90;;;;;;7368426;19;19922;-45
2022/11/22 12:46:59;;;;;;;8.35;2.70;;;8.00;99.90;;;;;;7371498;19;20589;-49
2022/11/22 12:49:42;;;;;;;7.85;2.10;;;8.00;99.90;;;;;;7370079;19;20019;-48
2022/11/22 12:52:38;;;;;;;7.57;1.70;;;8.00;99.90;;;;;;7373349;19;20022;-47
2022/11/22 12:55:23;;;;;;;6.63;2.75;;;7.90;99.90;;;;;;7369851;19;20014;-49
2022/11/22 12:57:56;;;;;;;7.47;1.77;;;7.90;99.90;;;;;;7370332;19;20494;-45
2022/11/22 13:00:25;;;;;;;9.07;1.42;;;7.80;99.90;;;;;;7371915;19;20394;-48
2022/11/22 13:03:11;;;;;;;9.05;1.70;;;7.80;99.90;;;;;;7373213;19;20032;-45
2022/11/22 13:05:58;;;;;;;6.53;1.65;;;7.80;99.90;;;;;;7373534;19;20482;-43
2022/11/22 13:08:42;;;;;;;4.22;1.25;;;7.80;99.90;;;;;;7367489;19;20053;-44
2022/11/22 13:11:55;;;;;;;7.32;1.88;;;7.80;99.90;;;;;;7373633;19;20015;-44
2022/11/22 13:14:30;;;;;;;7.07;1.48;;;7.80;99.90;;;;;;7369909;19;20063;-45
2022/11/22 13:16:58;;;;;;;6.00;1.52;;;7.80;99.90;;;;;;7367697;19;20453;-45